Springdale, Idaho
Current Conditions -  °F | °C
As of 5:03 AM on Sunday 21 Dec 2014 (Local Time) from KBYI Reporting Station
Overcast Overcast  
Wind Chill: 31°   Ceiling: 2900
Heat Index: 40°   Visibility: 10mi
Dew Point: 36°   Wind: 16mph
Humidity: 86%   Direction: 210°SSW
Pressure: 29.85"   Gusts: 25mph
Location:  42.5011°N, 113.814°W
Report Text: KBYI 211203Z AUTO 21014G22KT 10SM OVC029 04/02 A2985 RMK AO2 T00440022
Loading
Personal Weather Stations






























Interactive Weather Map New forecast layout! Learn more

10-Day Weather Forecast

Advertisements
Track Severe Weather on mobile